Time;durP1;ratioP1;P1;durP2;ratioP2;P2;SDS_P1;SDS_P2;PMS_P1;PMS_P2;Temp;Humidity;BMP_temperature;BMP_pressure;BME280_temperature;BME280_humidity;BME280_pressure;Samples;Min_cycle;Max_cycle;Signal;HPM_P1;HPM_P2
2023/06/27 00:00:13;;;;;;;12.27;4.50;;;;;;;22.31;65.38;99295.69;5073971;28;20020;-75
2023/06/27 00:02:41;;;;;;;15.48;4.90;;;;;;;21.83;65.37;99214.97;5073849;28;20505;-75
2023/06/27 00:05:07;;;;;;;14.68;4.45;;;;;;;22.38;65.46;99307.03;5072389;28;20059;-75
2023/06/27 00:07:33;;;;;;;12.05;4.32;;;;;;;22.36;65.74;99307.28;5073923;28;20026;-76
2023/06/27 00:09:58;;;;;;;17.13;4.93;;;;;;;22.13;65.54;99278.06;5073784;28;20025;-75
2023/06/27 00:12:24;;;;;;;11.80;4.00;;;;;;;22.34;65.26;99305.94;5073892;28;20051;-75
2023/06/27 00:14:49;;;;;;;13.23;4.38;;;;;;;22.00;65.02;99263.19;5073866;28;20103;-75
2023/06/27 00:17:16;;;;;;;15.55;4.55;;;;;;;22.25;65.22;99299.38;5073733;28;20028;-76
2023/06/27 00:19:44;;;;;;;15.95;4.63;;;;;;;21.93;64.76;99262.59;5072417;28;20095;-76
2023/06/27 00:22:10;;;;;;;15.30;4.18;;;;;;;21.72;65.24;99242.84;5073641;28;20083;-76
2023/06/27 00:24:37;;;;;;;13.55;4.32;;;;;;;22.09;65.60;99293.09;5073462;28;20025;-75
2023/06/27 00:27:02;;;;;;;14.48;4.40;;;;;;;22.13;65.49;99300.41;5073515;28;20024;-74
2023/06/27 00:29:28;;;;;;;15.65;4.63;;;;;;;22.10;65.68;99295.53;5072141;28;20162;-75
2023/06/27 00:31:54;;;;;;;11.68;4.25;;;;;;;21.94;65.40;99282.22;5073395;28;20497;-75
2023/06/27 00:34:20;;;;;;;14.63;4.28;;;;;;;21.87;65.25;99261.75;5071945;28;20028;-75
2023/06/27 00:36:45;;;;;;;12.35;4.50;;;;;;;21.95;65.32;99271.22;5073183;28;20023;-76
2023/06/27 00:39:10;;;;;;;16.38;4.68;;;;;;;22.08;65.35;99300.38;5073059;28;20009;-75
2023/06/27 00:41:36;;;;;;;16.02;4.53;;;;;;;21.98;65.48;99278.75;5073279;28;20107;-75
2023/06/27 00:44:06;;;;;;;14.70;4.68;;;;;;;22.01;65.48;99280.94;5073183;28;20437;-75
2023/06/27 00:46:37;;;;;;;12.45;3.97;;;;;;;21.97;65.54;99281.69;5073091;28;20024;-76
2023/06/27 00:49:03;;;;;;;11.52;4.65;;;;;;;21.44;65.56;99211.69;5073154;28;20082;-75
2023/06/27 00:51:30;;;;;;;11.85;4.50;;;;;;;21.52;65.48;99229.22;5071356;28;20097;-75
2023/06/27 00:53:56;;;;;;;14.35;4.15;;;;;;;21.53;65.49;99239.72;5072982;28;20024;-75
2023/06/27 00:56:22;;;;;;;11.23;4.35;;;;;;;21.88;65.56;99301.00;5072962;28;20027;-75
2023/06/27 00:58:48;;;;;;;15.20;4.03;;;;;;;21.44;65.56;99243.13;5072889;28;20532;-75
2023/06/27 01:01:13;;;;;;;12.75;4.07;;;;;;;21.58;65.38;99248.91;5072930;28;20048;-76
2023/06/27 01:03:39;;;;;;;14.77;4.43;;;;;;;21.74;65.25;99283.69;5072785;28;20029;-75
2023/06/27 01:06:14;;;;;;;13.15;4.72;;;;;;;21.80;65.23;99292.59;5072755;28;20485;-74
2023/06/27 01:08:50;;;;;;;10.73;4.07;;;;;;;21.76;65.33;99292.31;5072544;28;20417;-74
2023/06/27 01:11:24;;;;;;;13.93;4.60;;;;;;;21.71;65.29;99288.78;5072520;28;20089;-76
2023/06/27 01:13:54;;;;;;;14.65;4.70;;;;;;;21.34;65.27;99246.53;5074106;28;20028;-76
2023/06/27 01:16:22;;;;;;;14.73;5.05;;;;;;;21.07;65.37;99202.75;5073237;28;20020;-75
2023/06/27 01:18:50;;;;;;;12.65;4.35;;;;;;;21.19;65.42;99246.38;5072208;28;20099;-75
2023/06/27 01:21:19;;;;;;;15.98;4.90;;;;;;;21.53;65.47;99290.75;5072485;28;20025;-74
2023/06/27 01:23:52;;;;;;;12.13;4.07;;;;;;;21.50;65.48;99287.75;5071045;28;20489;-75
2023/06/27 01:26:17;;;;;;;13.77;4.07;;;;;;;21.08;65.29;99220.50;5072279;28;20024;-75
2023/06/27 01:28:43;;;;;;;15.90;4.65;;;;;;;21.36;65.21;99265.06;5072144;28;20130;-76
2023/06/27 01:31:45;;;;;;;12.68;4.25;;;;;;;21.08;65.13;99226.66;5071807;28;20029;-76
2023/06/27 01:34:18;;;;;;;15.57;4.53;;;;;;;21.36;65.11;99282.00;5010207;28;20124;-76
2023/06/27 01:36:52;;;;;;;13.95;4.05;;;;;;;21.43;65.26;99285.28;5062107;28;20043;-76
2023/06/27 01:39:21;;;;;;;11.48;4.15;;;;;;;21.46;64.95;99290.16;5070648;28;20479;-75
2023/06/27 01:41:54;;;;;;;13.50;4.65;;;;;;;21.44;65.12;99294.16;5070596;28;20081;-75
2023/06/27 01:44:21;;;;;;;17.13;4.25;;;;;;;20.96;64.87;99228.69;5070435;28;20029;-75
2023/06/27 01:46:50;;;;;;;11.48;4.10;;;;;;;21.34;64.79;99283.31;5071704;28;20032;-76
2023/06/27 01:49:16;;;;;;;16.73;4.45;;;;;;;20.96;64.98;99233.25;5070384;28;20032;-74
2023/06/27 01:51:41;;;;;;;21.90;4.80;;;;;;;21.38;64.91;99281.75;5071761;28;20417;-76
2023/06/27 01:54:07;;;;;;;17.30;4.85;;;;;;;21.44;64.70;99286.91;5071359;28;20491;-74
2023/06/27 01:56:33;;;;;;;18.38;4.80;;;;;;;20.98;64.72;99215.03;5070063;28;20033;-76
2023/06/27 01:58:58;;;;;;;19.15;4.90;;;;;;;20.90;64.64;99209.06;5071325;28;20076;-76
2023/06/27 02:01:24;;;;;;;12.30;4.53;;;;;;;20.91;64.53;99220.59;5071413;28;20413;-75
2023/06/27 02:03:49;;;;;;;23.25;5.10;;;;;;;21.21;64.90;99263.03;5071579;28;20103;-75
2023/06/27 02:06:15;;;;;;;14.32;4.38;;;;;;;21.31;65.32;99284.63;5071591;28;20436;-75
2023/06/27 02:08:41;;;;;;;14.68;3.92;;;;;;;21.32;64.95;99278.19;5071663;28;20082;-75
2023/06/27 02:11:06;;;;;;;16.75;4.80;;;;;;;21.03;64.71;99239.22;5070047;28;20077;-75
2023/06/27 02:13:36;;;;;;;15.35;4.70;;;;;;;20.47;64.84;99166.97;5071397;28;20024;-75
2023/06/27 02:16:01;;;;;;;13.05;5.05;;;;;;;20.65;65.08;99202.56;5071647;28;20077;-75
2023/06/27 02:18:26;;;;;;;18.50;5.28;;;;;;;21.12;65.08;99277.97;5071364;28;20037;-75
2023/06/27 02:20:52;;;;;;;13.90;4.70;;;;;;;20.93;64.96;99256.03;5071464;28;20058;-77
2023/06/27 02:23:17;;;;;;;14.45;4.43;;;;;;;20.97;65.06;99273.25;5071496;28;20466;-75
2023/06/27 02:25:43;;;;;;;18.85;4.80;;;;;;;20.60;65.12;99217.56;5071042;28;20063;-75
2023/06/27 02:28:08;;;;;;;13.70;4.75;;;;;;;20.94;64.94;99279.94;5071210;28;20050;-75
2023/06/27 02:30:34;;;;;;;17.85;5.03;;;;;;;20.90;65.11;99278.00;5070014;28;20055;-76
2023/06/27 02:32:59;;;;;;;19.70;5.03;;;;;;;21.04;65.15;99295.34;5071315;28;20513;-75
2023/06/27 02:35:25;;;;;;;21.60;5.75;;;;;;;20.85;65.33;99269.91;5071255;28;20417;-76
2023/06/27 02:37:50;;;;;;;17.10;5.38;;;;;;;20.59;65.47;99234.72;5069957;28;20127;-75
2023/06/27 02:40:15;;;;;;;23.52;5.53;;;;;;;21.00;65.24;99290.72;5071308;28;20096;-74
2023/06/27 02:42:41;;;;;;;20.63;4.70;;;;;;;20.59;65.13;99233.91;5073796;28;20084;-75
2023/06/27 02:45:07;;;;;;;17.27;4.80;;;;;;;20.56;65.19;99237.91;5075278;28;20025;-74
2023/06/27 02:47:32;;;;;;;17.80;4.82;;;;;;;20.82;65.22;99283.81;5075397;28;20518;-76
2023/06/27 02:49:57;;;;;;;20.35;5.22;;;;;;;20.69;65.13;99265.41;5075104;28;20032;-75
2023/06/27 02:52:23;;;;;;;15.07;4.28;;;;;;;20.57;65.13;99246.75;5075306;28;20024;-75
2023/06/27 02:54:48;;;;;;;16.20;5.00;;;;;;;20.93;65.02;99293.63;5074856;28;20473;-75
2023/06/27 02:57:14;;;;;;;18.88;5.20;;;;;;;20.83;65.15;99275.53;5074979;28;20045;-75
2023/06/27 02:59:39;;;;;;;17.80;4.63;;;;;;;20.93;65.03;99305.16;5074965;28;20122;-75
2023/06/27 03:02:05;;;;;;;14.07;5.15;;;;;;;20.25;64.97;99193.78;5074928;28;20036;-75
2023/06/27 03:04:30;;;;;;;21.52;5.75;;;;;;;20.11;65.13;99178.31;5075059;28;20029;-76
2023/06/27 03:06:55;;;;;;;15.38;5.10;;;;;;;20.88;64.86;99302.41;5073685;28;20036;-75
2023/06/27 03:09:21;;;;;;;12.95;4.50;;;;;;;20.37;64.77;99216.97;5074738;28;20031;-76
2023/06/27 03:11:46;;;;;;;17.85;4.93;;;;;;;20.57;64.98;99277.06;5074833;28;20024;-75
2023/06/27 03:14:17;;;;;;;15.38;4.82;;;;;;;20.21;64.92;99206.06;5074851;28;20064;-77
2023/06/27 03:16:42;;;;;;;18.10;5.68;;;;;;;20.79;65.17;99305.75;5073349;28;20025;-76
2023/06/27 03:19:08;;;;;;;17.27;5.70;;;;;;;20.65;65.26;99270.47;5074674;28;20527;-75
2023/06/27 03:21:33;;;;;;;16.70;5.40;;;;;;;20.40;65.05;99240.66;5073247;28;20465;-76
2023/06/27 03:23:59;;;;;;;19.33;5.45;;;;;;;20.51;65.06;99266.53;5074380;28;20025;-75
2023/06/27 03:26:27;;;;;;;17.45;5.60;;;;;;;20.46;65.30;99261.91;5074317;28;20024;-75
2023/06/27 03:28:54;;;;;;;17.17;4.97;;;;;;;20.63;65.07;99273.38;5073095;28;20544;-76
2023/06/27 03:31:19;;;;;;;22.25;5.70;;;;;;;20.78;65.15;99290.72;5074416;28;20037;-75
2023/06/27 03:33:46;;;;;;;19.30;5.90;;;;;;;20.80;65.15;99299.34;5074394;28;20039;-75
2023/06/27 03:36:11;;;;;;;20.55;5.78;;;;;;;20.90;65.09;99316.41;5074493;28;20055;-75
2023/06/27 03:38:37;;;;;;;16.70;5.53;;;;;;;20.79;65.10;99297.72;5074318;28;20485;-75
2023/06/27 03:41:02;;;;;;;16.42;5.25;;;;;;;20.91;65.29;99320.72;5072999;28;20023;-75
2023/06/27 03:43:28;;;;;;;17.50;5.47;;;;;;;20.91;65.34;99323.38;5072918;28;20025;-75
2023/06/27 03:45:53;;;;;;;13.65;5.50;;;;;;;20.96;65.34;99325.31;5074131;28;20055;-76
2023/06/27 03:48:18;;;;;;;24.02;6.72;;;;;;;20.98;65.52;99317.00;5074022;28;20413;-75
2023/06/27 03:50:44;;;;;;;21.17;6.45;;;;;;;20.54;65.32;99248.06;5074070;28;20020;-76
2023/06/27 03:53:09;;;;;;;18.83;6.28;;;;;;;20.99;65.49;99321.31;5072523;28;20512;-76
2023/06/27 03:55:37;;;;;;;17.73;6.38;;;;;;;20.76;65.62;99282.94;5073874;28;20093;-75
2023/06/27 03:58:02;;;;;;;19.45;7.07;;;;;;;21.05;65.76;99328.38;5073735;28;20514;-75
2023/06/27 04:00:28;;;;;;;19.17;5.55;;;;;;;21.08;65.62;99322.50;5073848;28;20016;-75
2023/06/27 04:02:55;;;;;;;15.13;6.38;;;;;;;20.74;65.50;99255.53;5074084;28;20048;-75
2023/06/27 04:05:20;;;;;;;16.33;6.05;;;;;;;21.01;65.44;99285.13;5073643;28;20493;-76
2023/06/27 04:07:46;;;;;;;18.25;6.15;;;;;;;20.93;65.42;99274.81;5078771;28;20056;-76
2023/06/27 04:10:11;;;;;;;20.40;5.88;;;;;;;21.31;65.27;99324.91;5073608;28;20020;-76
2023/06/27 04:12:37;;;;;;;12.68;5.65;;;;;;;21.38;65.26;99314.78;5073660;28;20024;-75
2023/06/27 04:15:02;;;;;;;15.77;7.07;;;;;;;21.47;65.33;99321.31;5074116;28;20031;-76
2023/06/27 04:17:28;;;;;;;14.57;5.47;;;;;;;21.16;65.47;99268.34;5073614;28;20032;-75
2023/06/27 04:19:53;;;;;;;17.95;6.43;;;;;;;21.34;65.31;99288.69;5073492;28;20016;-75
2023/06/27 04:22:19;;;;;;;15.52;6.57;;;;;;;21.61;65.50;99320.94;5073374;28;20112;-75
2023/06/27 04:24:44;;;;;;;12.88;6.30;;;;;;;21.31;65.26;99276.59;5073583;28;20493;-75
2023/06/27 04:27:10;;;;;;;14.50;7.22;;;;;;;21.50;65.42;99293.94;5074226;28;20090;-76
2023/06/27 04:29:36;;;;;;;16.13;6.30;;;;;;;21.46;65.34;99284.78;5075183;28;20052;-76
2023/06/27 04:32:02;;;;;;;12.77;6.25;;;;;;;21.37;65.51;99270.19;5073297;28;20028;-77
2023/06/27 04:34:28;;;;;;;18.60;7.30;;;;;;;21.31;65.61;99251.59;5073260;28;20061;-75
2023/06/27 04:36:53;;;;;;;15.68;6.88;;;;;;;21.86;65.60;99335.38;5073424;28;20028;-76
2023/06/27 04:39:18;;;;;;;13.45;6.95;;;;;;;21.35;65.50;99239.28;5073202;28;20035;-75
2023/06/27 04:41:44;;;;;;;16.33;7.47;;;;;;;21.98;65.62;99332.53;5073089;28;20055;-75
2023/06/27 04:44:09;;;;;;;14.65;6.97;;;;;;;21.63;65.68;99279.31;5072982;28;20027;-75
2023/06/27 04:46:35;;;;;;;9.73;6.28;;;;;;;22.10;65.75;99338.56;5072947;28;20100;-76
2023/06/27 04:49:00;;;;;;;16.65;6.85;;;;;;;22.07;65.51;99339.06;5073061;28;20024;-74
2023/06/27 04:51:29;;;;;;;10.50;6.93;;;;;;;21.91;65.49;99291.59;5071532;28;20020;-75
2023/06/27 04:53:55;;;;;;;16.90;7.65;;;;;;;22.20;65.38;99327.88;5072997;28;20047;-76
2023/06/27 04:56:22;;;;;;;11.85;7.60;;;;;;;22.17;65.13;99328.38;5072754;28;20497;-75
2023/06/27 04:58:47;;;;;;;9.68;6.78;;;;;;;22.39;65.17;99357.06;5072604;28;20499;-75
2023/06/27 05:01:13;;;;;;;15.07;7.70;;;;;;;22.08;65.26;99305.75;5072688;28;20162;-77
2023/06/27 05:03:38;;;;;;;11.15;6.80;;;;;;;22.08;65.26;99294.97;5072531;28;20036;-75
2023/06/27 05:06:04;;;;;;;12.23;7.57;;;;;;;22.56;64.99;99373.03;5072022;28;20154;-75
2023/06/27 05:08:30;;;;;;;10.10;6.70;;;;;;;22.66;65.20;99365.81;5072513;28;20017;-76
2023/06/27 05:10:56;;;;;;;8.40;6.80;;;;;;;22.65;65.22;99356.13;5072428;28;20024;-73
2023/06/27 05:13:22;;;;;;;11.68;6.70;;;;;;;22.50;65.15;99321.06;5071129;28;20025;-75
2023/06/27 05:15:47;;;;;;;14.98;7.63;;;;;;;22.84;65.05;99367.28;5072322;28;20020;-74
2023/06/27 05:18:14;;;;;;;16.42;7.03;;;;;;;22.90;65.31;99368.94;5072526;28;20035;-75
2023/06/27 05:20:40;;;;;;;22.15;8.30;;;;;;;23.01;65.25;99388.63;5072367;28;20101;-75
2023/06/27 05:23:05;;;;;;;27.17;18.13;;;;;;;23.05;65.04;99378.97;5071026;28;20043;-75
2023/06/27 05:25:31;;;;;;;17.88;9.77;;;;;;;23.10;65.39;99376.31;5070490;28;20110;-75
2023/06/27 05:27:57;;;;;;;17.73;9.85;;;;;;;23.11;65.37;99377.94;5071754;28;20031;-75
2023/06/27 05:30:23;;;;;;;23.50;12.70;;;;;;;23.12;65.42;99371.47;5072049;28;20016;-75
2023/06/27 05:32:48;;;;;;;16.13;7.93;;;;;;;22.82;65.65;99321.78;5072129;28;20116;-75
2023/06/27 05:35:14;;;;;;;12.82;8.13;;;;;;;23.02;65.49;99352.56;5071953;28;20082;-75
2023/06/27 05:37:39;;;;;;;13.95;7.60;;;;;;;23.10;65.31;99365.53;5072226;28;20059;-75
2023/06/27 05:40:05;;;;;;;9.63;7.80;;;;;;;22.89;65.27;99323.44;5071892;28;20020;-75
2023/06/27 05:42:31;;;;;;;13.75;8.50;;;;;;;22.73;65.34;99288.34;5070632;28;20413;-75
2023/06/27 05:44:56;;;;;;;11.98;7.88;;;;;;;22.97;65.51;99320.22;5071774;28;20055;-75
2023/06/27 05:47:21;;;;;;;11.43;8.65;;;;;;;23.35;65.39;99373.69;5071556;28;20394;-75
2023/06/27 05:49:48;;;;;;;11.07;9.95;;;;;;;22.96;64.96;99305.94;5070214;28;20033;-75
2023/06/27 05:52:14;;;;;;;10.18;8.57;;;;;;;22.90;65.41;99290.06;5071601;28;20473;-76
2023/06/27 05:54:41;;;;;;;10.68;9.57;;;;;;;23.02;65.15;99304.09;5071996;28;20028;-76
2023/06/27 05:57:07;;;;;;;11.35;9.07;;;;;;;23.15;65.00;99325.16;5091351;28;20042;-75
2023/06/27 05:59:32;;;;;;;9.93;7.35;;;;;;;23.39;64.89;99364.00;5091799;28;20413;-77
2023/06/27 06:01:58;;;;;;;10.68;8.43;;;;;;;23.21;64.88;99332.16;5075935;28;20479;-76
2023/06/27 06:04:23;;;;;;;9.43;7.90;;;;;;;23.37;64.32;99347.28;5080866;28;20039;-75
2023/06/27 06:06:49;;;;;;;10.27;7.43;;;;;;;23.11;64.23;99316.78;5088710;28;20024;-75
2023/06/27 06:09:14;;;;;;;9.75;8.00;;;;;;;23.32;64.35;99327.63;5071208;28;20528;-76
2023/06/27 06:11:39;;;;;;;10.07;7.85;;;;;;;23.24;63.94;99311.97;5072526;28;20409;-75
2023/06/27 06:14:05;;;;;;;9.15;7.60;;;;;;;23.29;63.91;99320.88;5072494;28;20024;-76
2023/06/27 06:16:33;;;;;;;13.90;11.38;;;;;;;23.54;63.92;99349.75;5070305;28;20020;-77
2023/06/27 06:18:58;;;;;;;11.63;8.38;;;;;;;23.77;63.54;99389.69;5071496;28;20024;-75
2023/06/27 06:21:24;;;;;;;11.75;8.73;;;;;;;23.63;63.03;99342.78;5070093;28;20398;-76
2023/06/27 06:23:49;;;;;;;11.90;10.18;;;;;;;23.89;62.96;99384.06;5071330;28;20032;-75
2023/06/27 06:26:15;;;;;;;9.65;7.57;;;;;;;23.44;63.13;99304.72;5086343;28;20111;-75
2023/06/27 06:28:40;;;;;;;13.00;11.52;;;;;;;23.96;62.70;99376.53;5091729;28;20027;-75
2023/06/27 06:31:06;;;;;;;11.52;9.85;;;;;;;24.01;62.43;99371.13;5091438;28;20012;-76
2023/06/27 06:33:32;;;;;;;10.63;9.52;;;;;;;24.08;62.54;99371.66;5073401;28;20032;-75
2023/06/27 06:35:57;;;;;;;8.90;7.55;;;;;;;24.12;62.43;99380.03;5072643;28;20095;-76
2023/06/27 06:38:24;;;;;;;11.00;7.97;;;;;;;23.94;62.36;99337.44;5070845;28;20033;-76
2023/06/27 06:40:50;;;;;;;9.68;7.32;;;;;;;24.24;62.66;99364.38;5071235;28;20020;-76
2023/06/27 06:43:15;;;;;;;7.82;6.47;;;;;;;24.27;62.02;99363.03;5069931;28;20017;-76
2023/06/27 06:45:40;;;;;;;8.98;7.85;;;;;;;23.63;61.48;99261.09;5089647;28;20012;-76
2023/06/27 06:48:06;;;;;;;12.95;7.95;;;;;;;24.43;61.77;99369.22;5091775;28;20031;-75
2023/06/27 06:50:32;;;;;;;10.25;7.55;;;;;;;24.52;61.32;99364.88;5091464;28;20543;-75
2023/06/27 06:52:57;;;;;;;7.43;5.70;;;;;;;24.52;60.91;99362.19;5091482;28;20027;-76
2023/06/27 06:55:23;;;;;;;11.13;7.25;;;;;;;24.29;60.62;99315.81;5091163;28;20145;-75
2023/06/27 06:57:49;;;;;;;7.05;5.70;;;;;;;24.19;59.89;99291.53;5080013;28;20045;-75
2023/06/27 07:00:15;;;;;;;9.52;5.97;;;;;;;24.27;59.75;99306.38;5071438;28;20079;-76
2023/06/27 07:02:41;;;;;;;9.20;6.47;;;;;;;24.71;59.52;99368.66;5071366;28;20031;-75
2023/06/27 07:05:08;;;;;;;10.73;7.95;;;;;;;24.77;59.05;99375.66;5070654;28;20016;-76
2023/06/27 07:07:34;;;;;;;9.05;6.53;;;;;;;24.59;58.87;99338.44;5069442;28;20028;-77
2023/06/27 07:09:59;;;;;;;8.18;6.78;;;;;;;24.64;58.41;99351.94;5067063;28;20028;-76
2023/06/27 07:12:24;;;;;;;10.27;6.53;;;;;;;24.32;58.11;99288.28;5070223;28;20497;-76
2023/06/27 07:14:50;;;;;;;6.70;6.00;;;;;;;24.28;57.97;99268.34;5070572;28;20095;-75
2023/06/27 07:17:15;;;;;;;7.20;5.93;;;;;;;25.03;58.71;99366.38;5071849;28;20485;-74
2023/06/27 07:19:42;;;;;;;8.45;5.95;;;;;;;24.74;58.28;99291.69;5071824;28;20017;-76
2023/06/27 07:22:08;;;;;;;11.57;8.27;;;;;;;24.78;58.08;99293.56;5080889;28;20075;-73
2023/06/27 07:24:34;;;;;;;7.28;6.68;;;;;;;25.23;57.34;99357.38;5067477;28;20028;-75
2023/06/27 07:26:59;;;;;;;8.52;7.60;;;;;;;25.22;57.15;99342.25;5068664;28;20024;-75
2023/06/27 07:29:24;;;;;;;13.40;6.72;;;;;;;25.42;56.64;99371.06;5073794;28;20021;-75
2023/06/27 07:31:50;;;;;;;6.60;5.75;;;;;;;24.93;55.72;99284.56;5074051;28;20017;-75
2023/06/27 07:34:16;;;;;;;5.93;5.10;;;;;;;25.22;55.37;99325.22;5074924;28;20401;-75
2023/06/27 07:36:42;;;;;;;7.82;4.95;;;;;;;24.93;55.05;99271.06;5086970;28;20136;-75
2023/06/27 07:39:08;;;;;;;5.72;4.95;;;;;;;25.03;54.45;99279.94;5077201;28;20102;-75
2023/06/27 07:41:33;;;;;;;5.65;5.05;;;;;;;25.36;53.96;99315.44;5072259;28;20024;-76
2023/06/27 07:43:59;;;;;;;6.68;4.65;;;;;;;25.77;53.28;99361.94;5073275;28;20036;-75
2023/06/27 07:46:24;;;;;;;5.05;4.40;;;;;;;25.82;52.77;99359.19;5077980;28;20012;-76
2023/06/27 07:48:50;;;;;;;5.57;4.65;;;;;;;25.88;52.39;99365.38;5085016;28;20021;-74
2023/06/27 07:51:15;;;;;;;6.22;5.32;;;;;;;25.70;52.24;99315.50;5059514;28;20020;-77
2023/06/27 07:53:40;;;;;;;6.18;4.43;;;;;;;26.03;51.53;99369.88;5054471;28;20017;-76
2023/06/27 07:56:06;;;;;;;6.13;4.88;;;;;;;26.07;50.95;99369.03;5073114;28;20099;-75
2023/06/27 07:58:32;;;;;;;6.03;5.07;;;;;;;26.14;50.67;99357.88;5072691;28;20415;-77
2023/06/27 08:00:58;;;;;;;5.45;4.82;;;;;;;26.07;50.56;99331.16;5073296;28;20101;-77
2023/06/27 08:03:24;;;;;;;5.28;4.20;;;;;;;26.11;50.38;99321.38;5073365;28;20099;-76
2023/06/27 08:05:51;;;;;;;4.63;4.22;;;;;;;26.33;49.41;99356.09;5074497;28;20024;-76
2023/06/27 08:08:17;;;;;;;6.63;3.80;;;;;;;26.03;49.02;99297.63;5083340;28;20047;-74
2023/06/27 08:10:42;;;;;;;6.85;4.32;;;;;;;26.52;48.92;99359.69;5078078;28;20489;-77
2023/06/27 08:13:08;;;;;;;4.38;3.97;;;;;;;26.24;48.47;99312.56;5072842;28;20028;-75
2023/06/27 08:15:33;;;;;;;7.07;5.22;;;;;;;26.19;48.15;99282.06;5081055;28;20036;-75
2023/06/27 08:18:00;;;;;;;6.07;5.47;;;;;;;26.70;48.08;99344.59;5069734;28;20513;-75
2023/06/27 08:20:26;;;;;;;6.15;5.47;;;;;;;26.34;47.77;99286.53;5073115;28;20009;-76
2023/06/27 08:22:51;;;;;;;8.07;7.28;;;;;;;26.35;47.70;99271.91;5073407;28;20091;-74
2023/06/27 08:25:17;;;;;;;5.80;5.28;;;;;;;26.52;47.14;99302.81;5078824;28;20078;-76
2023/06/27 08:27:42;;;;;;;5.47;4.32;;;;;;;26.96;46.98;99358.66;5076902;28;20028;-76
2023/06/27 08:30:08;;;;;;;5.40;4.90;;;;;;;27.03;46.51;99348.31;5073109;28;20024;-75
2023/06/27 08:32:33;;;;;;;4.28;3.88;;;;;;;26.81;46.16;99300.06;5072014;28;20488;-76
2023/06/27 08:34:59;;;;;;;5.25;4.10;;;;;;;27.19;45.63;99344.28;5079041;28;20016;-76
2023/06/27 08:37:25;;;;;;;5.03;3.80;;;;;;;26.81;45.00;99277.59;5071728;28;20086;-75
2023/06/27 08:39:51;;;;;;;5.03;3.90;;;;;;;27.09;44.76;99330.06;5070887;28;20013;-76
2023/06/27 08:42:18;;;;;;;4.43;4.03;;;;;;;27.35;44.95;99353.03;5073073;28;20055;-76
2023/06/27 08:44:43;;;;;;;6.05;4.68;;;;;;;27.44;45.13;99366.72;5072574;28;20025;-74
2023/06/27 08:47:11;;;;;;;6.05;3.85;;;;;;;27.11;44.54;99298.88;5065805;28;20029;-74
2023/06/27 08:49:39;;;;;;;6.47;4.50;;;;;;;27.41;43.95;99315.78;5072774;28;20519;-76
2023/06/27 08:52:07;;;;;;;5.20;3.80;;;;;;;27.60;43.03;99335.59;5078501;28;20025;-77
2023/06/27 08:54:37;;;;;;;5.22;4.72;;;;;;;27.81;43.55;99349.66;5073825;28;20050;-76
2023/06/27 08:57:04;;;;;;;8.30;3.80;;;;;;;27.88;42.48;99341.16;5073975;28;20027;-77
2023/06/27 08:59:37;;;;;;;6.60;4.47;;;;;;;28.00;42.27;99320.56;5069271;28;20044;-76
2023/06/27 09:02:08;;;;;;;6.18;5.07;;;;;;;28.00;42.06;99312.44;5068212;28;20111;-77
2023/06/27 09:04:33;;;;;;;;;;;;;;;28.08;43.16;99335.38;5064226;28;20025;-75
2023/06/27 09:07:00;;;;;;;5.88;4.72;;;;;;;27.88;42.12;99278.75;5070177;28;19912;-73
2023/06/27 09:09:27;;;;;;;8.20;6.82;;;;;;;28.30;41.82;99310.31;5069124;28;20021;-74
2023/06/27 09:11:53;;;;;;;8.55;5.20;;;;;;;28.60;41.24;99325.22;5071792;28;20043;-75
2023/06/27 09:14:18;;;;;;;5.05;4.25;;;;;;;28.56;41.40;99286.19;5055457;28;20021;-74
2023/06/27 09:16:44;;;;;;;8.20;7.10;;;;;;;29.03;40.61;99339.34;5068271;28;20099;-74
2023/06/27 09:19:10;;;;;;;5.50;4.97;;;;;;;29.12;39.99;99323.09;5056897;28;20017;-75
2023/06/27 09:21:37;;;;;;;8.63;7.10;;;;;;;29.13;39.98;99294.81;5062498;28;20504;-74
2023/06/27 09:24:07;;;;;;;6.35;5.85;;;;;;;29.34;40.17;99294.03;5070629;28;20028;-76
2023/06/27 09:26:32;;;;;;;5.07;4.55;;;;;;;29.43;39.17;99291.41;5070377;28;20035;-74
2023/06/27 09:28:59;;;;;;;5.15;3.95;;;;;;;29.87;38.69;99341.53;5065326;28;20024;-74
2023/06/27 09:31:26;;;;;;;6.28;5.57;;;;;;;29.67;38.51;99278.31;5071863;28;20025;-73
2023/06/27 09:34:03;;;;;;;7.72;5.63;;;;;;;30.08;36.94;99331.75;5072068;28;20023;-73
2023/06/27 09:36:33;;;;;;;9.25;6.25;;;;;;;30.22;37.52;99337.13;5071447;28;20493;-74
2023/06/27 09:39:06;;;;;;;6.38;5.20;;;;;;;30.29;37.34;99332.03;5071836;28;20447;-75
2023/06/27 09:41:50;;;;;;;4.50;4.10;;;;;;;30.48;36.27;99326.38;5071603;28;20096;-76
2023/06/27 09:44:18;;;;;;;5.93;4.47;;;;;;;30.58;36.40;99323.34;5070264;28;20131;-74
2023/06/27 09:46:44;;;;;;;5.75;5.15;;;;;;;30.85;36.41;99325.88;5070305;28;20486;-74
2023/06/27 09:49:10;;;;;;;6.35;5.72;;;;;;;30.81;35.32;99305.81;5071662;28;20379;-75
2023/06/27 09:51:36;;;;;;;5.68;5.05;;;;;;;31.04;34.95;99328.31;5066949;28;20027;-75
2023/06/27 09:54:02;;;;;;;5.85;3.80;;;;;;;31.12;35.05;99324.00;5070084;28;20040;-76
2023/06/27 09:56:31;;;;;;;6.80;4.55;;;;;;;31.08;35.03;99315.63;5068360;28;20105;-75
2023/06/27 09:59:09;;;;;;;5.60;3.90;;;;;;;31.38;34.31;99321.34;5069730;28;20044;-76
2023/06/27 10:01:41;;;;;;;5.00;4.60;;;;;;;31.08;34.33;99261.09;5070667;28;20023;-75
2023/06/27 10:04:07;;;;;;;7.20;4.60;;;;;;;31.34;33.63;99277.53;5071072;28;20028;-75
2023/06/27 10:06:34;;;;;;;5.47;4.25;;;;;;;31.85;33.88;99320.34;5071095;28;20469;-75
2023/06/27 10:08:59;;;;;;;5.45;4.70;;;;;;;31.93;34.24;99335.13;5069152;28;20020;-75
2023/06/27 10:11:26;;;;;;;7.00;4.72;;;;;;;31.67;34.58;99321.47;5061980;28;20032;-76
2023/06/27 10:13:52;;;;;;;6.05;5.03;;;;;;;31.10;34.69;99282.59;5063895;28;20047;-74
2023/06/27 10:16:18;;;;;;;5.13;4.60;;;;;;;30.90;34.62;99322.19;5070995;28;20501;-74
2023/06/27 10:18:44;;;;;;;5.57;4.90;;;;;;;30.36;34.26;99286.06;5054460;28;20032;-75
2023/06/27 10:21:10;;;;;;;7.28;5.38;;;;;;;29.91;34.58;99267.09;5070982;28;20016;-75
2023/06/27 10:23:38;;;;;;;5.57;4.72;;;;;;;29.96;35.17;99315.16;5070305;28;20059;-76
2023/06/27 10:26:04;;;;;;;4.15;3.75;;;;;;;29.62;35.38;99286.59;5070375;28;20028;-75
2023/06/27 10:28:33;;;;;;;8.93;8.05;;;;;;;29.76;35.75;99305.59;5060848;28;20021;-76
2023/06/27 10:30:58;;;;;;;5.10;4.20;;;;;;;30.10;35.04;99277.78;5070367;28;20043;-75
2023/06/27 10:33:31;;;;;;;5.82;5.03;;;;;;;30.78;35.07;99311.91;5075252;28;20496;-75
2023/06/27 10:36:02;;;;;;;5.65;4.47;;;;;;;30.75;35.28;99304.34;5068638;28;20048;-75
2023/06/27 10:38:35;;;;;;;7.97;4.45;;;;;;;30.23;36.16;99252.38;5067019;28;20024;-75
2023/06/27 10:41:05;;;;;;;6.10;5.28;;;;;;;30.45;36.29;99297.78;5072988;28;20096;-75
2023/06/27 10:43:51;;;;;;;4.70;3.70;;;;;;;30.19;35.22;99262.28;5075879;28;20534;-76
2023/06/27 10:46:23;;;;;;;4.35;3.95;;;;;;;30.67;35.89;99283.34;5070329;28;20032;-76
2023/06/27 10:48:50;;;;;;;5.15;4.20;;;;;;;31.24;34.94;99288.75;5054820;28;20027;-76
2023/06/27 10:51:21;;;;;;;4.75;4.03;;;;;;;31.50;34.02;99264.97;5070226;28;20439;-75
2023/06/27 10:54:14;;;;;;;6.30;4.70;;;;;;;32.13;33.11;99282.53;5067602;28;20033;-75
2023/06/27 10:56:41;;;;;;;6.88;5.32;;;;;;;32.29;32.15;99280.09;5068801;28;20024;-76
2023/06/27 10:59:13;;;;;;;5.20;4.35;;;;;;;32.44;31.01;99279.53;5072324;28;20044;-75
2023/06/27 11:02:04;;;;;;;15.18;5.53;;;;;;;32.77;31.92;99290.69;5067703;28;20032;-76
2023/06/27 11:04:41;;;;;;;6.97;4.47;;;;;;;33.01;31.98;99275.56;5072135;28;20413;-76
2023/06/27 11:07:09;;;;;;;7.15;4.45;;;;;;;33.14;30.94;99256.13;5073137;28;20505;-75
2023/06/27 11:09:37;;;;;;;4.50;4.10;;;;;;;32.81;30.84;99193.16;5074283;28;20016;-76
2023/06/27 11:12:09;;;;;;;5.85;4.60;;;;;;;33.59;31.35;99279.28;5057788;28;20530;-75
2023/06/27 11:14:40;;;;;;;9.45;8.50;;;;;;;33.42;31.11;99214.53;5074334;28;20048;-76
2023/06/27 11:17:05;;;;;;;;;;;;;;;34.00;30.41;99270.97;5074715;28;20028;-76
2023/06/27 11:19:35;;;;;;;8.20;6.30;;;;;;;34.20;30.50;99274.78;5074258;28;19922;-76
2023/06/27 11:22:02;;;;;;;6.37;4.30;;;;;;;34.42;29.91;99257.13;5069884;28;20499;-76
2023/06/27 11:24:31;;;;;;;6.15;4.88;;;;;;;34.28;29.42;99208.09;5073908;28;20020;-75
2023/06/27 11:27:02;;;;;;;6.70;5.13;;;;;;;34.85;28.71;99263.97;5069931;28;20036;-75